createdAt,value
2022-11-28T00:04:26.478Z,2.86
2022-11-28T00:09:30.588Z,3.12
2022-11-28T00:14:35.429Z,3.03
2022-11-28T00:19:41.002Z,2.89
2022-11-28T00:24:45.504Z,3.04
2022-11-28T00:29:49.703Z,2.80
2022-11-28T00:34:55.435Z,2.88
2022-11-28T00:39:59.434Z,2.73
2022-11-28T00:45:03.609Z,2.72
2022-11-28T00:50:12.741Z,2.61
2022-11-28T00:55:16.825Z,2.53
2022-11-28T01:00:21.979Z,2.65
2022-11-28T01:05:28.444Z,2.89
2022-11-28T01:10:32.429Z,3.00
2022-11-28T01:15:37.295Z,3.36
2022-11-28T01:20:42.669Z,3.50
2022-11-28T01:25:49.096Z,3.56
2022-11-28T01:30:53.414Z,3.62
2022-11-28T01:36:00.239Z,3.22
2022-11-28T01:41:05.111Z,3.14
2022-11-28T01:46:11.003Z,3.09
2022-11-28T01:51:17.606Z,3.50
2022-11-28T01:56:24.539Z,3.21
2022-11-28T02:01:29.104Z,3.25
2022-11-28T02:06:35.052Z,2.99
2022-11-28T02:11:58.809Z,2.90
2022-11-28T02:17:16.791Z,2.71
2022-11-28T02:22:25.882Z,2.87
2022-11-28T02:28:13.592Z,2.74
2022-11-28T02:33:27.268Z,2.60
2022-11-28T02:38:44.408Z,2.64
2022-11-28T02:43:58.369Z,2.51
2022-11-28T02:49:07.620Z,2.34
2022-11-28T02:54:14.736Z,2.52
2022-11-28T02:59:45.918Z,2.83
2022-11-28T03:04:58.914Z,2.76
2022-11-28T03:10:14.549Z,2.79
2022-11-28T03:15:22.206Z,2.71
2022-11-28T03:20:38.076Z,2.69
2022-11-28T03:25:53.427Z,2.67
2022-11-28T03:31:03.285Z,2.72
2022-11-28T03:36:14.970Z,2.71
2022-11-28T03:41:25.917Z,2.73
2022-11-28T03:46:37.793Z,2.74
2022-11-28T03:51:48.271Z,2.78
2022-11-28T03:56:58.634Z,2.65
2022-11-28T04:02:08.035Z,2.68
2022-11-28T04:07:24.954Z,2.68
2022-11-28T04:12:38.886Z,2.73
2022-11-28T04:17:51.535Z,2.79
2022-11-28T04:23:02.350Z,2.85
2022-11-28T04:28:12.494Z,2.88
2022-11-28T04:33:20.551Z,2.91
2022-11-28T04:38:29.856Z,2.85
2022-11-28T04:43:39.284Z,2.71
2022-11-28T04:48:44.429Z,2.94
2022-11-28T04:53:55.906Z,2.99
2022-11-28T04:59:01.125Z,3.16
2022-11-28T05:04:05.919Z,3.06
2022-11-28T05:09:12.706Z,2.73
2022-11-28T05:14:19.103Z,2.83
2022-11-28T05:19:23.908Z,2.91
2022-11-28T05:24:32.351Z,2.75
2022-11-28T05:29:36.559Z,2.76
2022-11-28T05:34:41.783Z,2.83
2022-11-28T05:39:49.460Z,2.81
2022-11-28T05:44:54.060Z,2.87
2022-11-28T05:49:58.071Z,2.87
2022-11-28T05:55:03.501Z,2.82
2022-11-28T06:00:09.691Z,2.91
2022-11-28T06:05:40.880Z,2.86
2022-11-28T06:10:43.396Z,2.69
2022-11-28T06:15:47.523Z,2.62
2022-11-28T06:20:52.241Z,2.91
2022-11-28T06:25:57.702Z,2.89
2022-11-28T06:31:02.471Z,2.89
2022-11-28T06:36:08.216Z,2.80
2022-11-28T06:41:17.394Z,2.98
2022-11-28T06:46:22.841Z,2.88
2022-11-28T06:51:26.993Z,2.53
2022-11-28T06:56:32.340Z,2.60
2022-11-28T07:01:36.580Z,2.59
2022-11-28T07:06:41.172Z,2.53
2022-11-28T07:11:47.982Z,2.72
2022-11-28T07:16:51.975Z,2.75
2022-11-28T07:21:56.235Z,2.84
2022-11-28T07:27:04.147Z,2.95
2022-11-28T07:32:08.759Z,3.08
2022-11-28T07:37:13.485Z,3.16
2022-11-28T07:42:20.217Z,2.86
2022-11-28T07:47:40.781Z,2.84
2022-11-28T07:52:44.833Z,2.95
2022-11-28T07:57:50.232Z,3.24
2022-11-28T08:02:54.284Z,3.35
2022-11-28T08:07:58.813Z,3.73
2022-11-28T08:13:04.927Z,3.87
2022-11-28T08:18:09.611Z,3.95
2022-11-28T08:23:14.366Z,4.15
2022-11-28T08:28:19.976Z,4.54
2022-11-28T08:33:24.225Z,4.64
2022-11-28T08:38:28.561Z,4.84
2022-11-28T08:43:37.092Z,5.28
2022-11-28T08:48:42.665Z,5.36
2022-11-28T08:53:49.441Z,5.54
2022-11-28T08:58:55.036Z,5.95
2022-11-28T09:03:59.265Z,6.19
2022-11-28T09:09:06.142Z,5.87
2022-11-28T09:14:11.946Z,5.54
2022-11-28T09:19:17.200Z,5.85
2022-11-28T09:24:21.168Z,5.39
2022-11-28T09:29:26.726Z,5.37
2022-11-28T09:34:31.262Z,5.47
2022-11-28T09:39:44.299Z,5.43
2022-11-28T09:45:00.009Z,5.63
2022-11-28T09:50:10.630Z,5.06
2022-11-28T09:55:21.650Z,4.77
2022-11-28T10:00:36.161Z,4.73
2022-11-28T10:05:46.869Z,4.75
2022-11-28T10:11:01.977Z,4.75
2022-11-28T10:16:16.981Z,4.43
2022-11-28T10:21:30.300Z,4.27
2022-11-28T10:26:37.725Z,4.22
2022-11-28T10:31:47.318Z,4.22
2022-11-28T10:36:59.133Z,4.59
2022-11-28T10:42:17.662Z,4.38
2022-11-28T10:47:36.112Z,4.52
2022-11-28T10:52:46.359Z,4.46
2022-11-28T10:58:03.552Z,4.47
2022-11-28T11:03:15.077Z,4.41
2022-11-28T11:08:25.248Z,4.15
2022-11-28T11:13:30.799Z,4.28
2022-11-28T11:18:38.793Z,4.87
2022-11-28T11:23:43.397Z,5.07
2022-11-28T11:28:50.428Z,4.97
2022-11-28T11:34:04.835Z,4.82
2022-11-28T11:39:20.953Z,4.77
2022-11-28T11:44:34.689Z,5.19
2022-11-28T11:49:43.094Z,5.31
2022-11-28T11:55:06.679Z,5.37
2022-11-28T12:00:19.428Z,5.71
2022-11-28T12:05:46.415Z,5.78
2022-11-28T12:11:05.836Z,5.57
2022-11-28T12:16:32.031Z,5.35
2022-11-28T12:21:46.265Z,5.61
2022-11-28T12:26:54.006Z,5.19
2022-11-28T12:32:19.401Z,5.19
2022-11-28T12:38:10.362Z,5.23
2022-11-28T12:43:37.950Z,5.00
2022-11-28T12:49:18.223Z,4.83
2022-11-28T12:54:55.335Z,4.68
2022-11-28T13:00:09.252Z,4.82
2022-11-28T13:05:38.559Z,4.82
2022-11-28T13:10:52.181Z,4.77
2022-11-28T13:16:22.044Z,4.60
2022-11-28T13:21:38.853Z,4.56
2022-11-28T13:27:02.379Z,4.38
2022-11-28T13:32:25.337Z,4.62
2022-11-28T13:43:18.371Z,3.98
2022-11-28T13:49:20.409Z,4.07
2022-11-28T13:54:55.303Z,4.17
2022-11-28T14:00:23.764Z,4.23
2022-11-28T14:05:33.838Z,4.16
2022-11-28T14:11:15.076Z,3.89
2022-11-28T14:16:40.372Z,3.94
2022-11-28T14:21:59.970Z,4.12
2022-11-28T14:27:06.880Z,4.00
2022-11-28T14:32:30.589Z,4.11
2022-11-28T14:38:00.849Z,3.95
2022-11-28T14:43:28.981Z,3.96
2022-11-28T14:48:39.055Z,3.82
2022-11-28T14:53:54.635Z,3.86
2022-11-28T14:59:06.811Z,3.77
2022-11-28T15:04:46.648Z,3.50
2022-11-28T15:10:07.435Z,3.62
2022-11-28T15:15:17.100Z,3.69
2022-11-28T15:20:30.571Z,3.62
2022-11-28T15:25:37.432Z,3.65
2022-11-28T15:30:46.541Z,3.53
2022-11-28T15:35:58.686Z,3.72
2022-11-28T15:41:02.822Z,3.68
2022-11-28T15:46:08.101Z,3.51
2022-11-28T15:51:28.148Z,3.42
2022-11-28T15:56:34.857Z,3.47
2022-11-28T16:01:39.136Z,3.39
2022-11-28T16:06:50.999Z,3.50
2022-11-28T16:11:57.811Z,3.31
2022-11-28T16:17:04.322Z,3.23
2022-11-28T16:22:11.762Z,3.21
2022-11-28T16:27:30.167Z,3.06
2022-11-28T16:32:38.645Z,3.07
2022-11-28T16:37:44.532Z,3.19
2022-11-28T16:42:53.692Z,3.18
2022-11-28T16:48:07.200Z,3.45
2022-11-28T16:53:44.183Z,3.54
2022-11-28T16:58:48.322Z,3.66
2022-11-28T17:03:55.557Z,3.52
2022-11-28T17:09:01.442Z,3.49
2022-11-28T17:14:11.749Z,3.46
2022-11-28T17:19:18.217Z,3.76
2022-11-28T17:24:26.127Z,3.76
2022-11-28T17:29:30.366Z,3.44
2022-11-28T17:34:35.640Z,3.82
2022-11-28T17:40:01.119Z,3.55
2022-11-28T17:45:06.323Z,3.58
2022-11-28T17:50:11.443Z,3.68
2022-11-28T17:55:18.640Z,3.72
2022-11-28T18:00:24.507Z,3.85
2022-11-28T18:05:30.685Z,3.46
2022-11-28T18:10:38.424Z,3.26
2022-11-28T18:15:43.688Z,3.24
2022-11-28T18:20:48.466Z,3.23
2022-11-28T18:25:56.225Z,3.42
2022-11-28T18:31:02.708Z,3.67
2022-11-28T18:36:12.307Z,3.89
2022-11-28T18:41:18.958Z,3.63
2022-11-28T18:46:23.726Z,3.53
2022-11-28T18:51:30.081Z,3.28
2022-11-28T18:56:36.566Z,3.62
2022-11-28T19:01:42.536Z,3.52
2022-11-28T19:06:48.763Z,3.36
2022-11-28T19:11:56.046Z,3.52
2022-11-28T19:17:02.307Z,3.47
2022-11-28T19:22:07.981Z,3.36
2022-11-28T19:27:14.740Z,3.22
2022-11-28T19:32:19.921Z,3.19
2022-11-28T19:37:24.980Z,3.40
2022-11-28T19:42:31.253Z,3.30
2022-11-28T19:47:36.527Z,3.00
2022-11-28T19:52:40.694Z,3.21
2022-11-28T19:57:48.914Z,3.18
2022-11-28T20:02:53.241Z,3.37
2022-11-28T20:07:58.799Z,3.42
2022-11-28T20:13:05.945Z,3.33
2022-11-28T20:18:10.688Z,3.48
2022-11-28T20:23:14.689Z,3.38
2022-11-28T20:28:21.265Z,3.76
2022-11-28T20:33:26.246Z,3.61
2022-11-28T20:38:30.664Z,3.48
2022-11-28T20:43:38.268Z,3.45
2022-11-28T20:48:42.852Z,3.18
2022-11-28T20:53:47.657Z,3.09
2022-11-28T20:58:53.620Z,3.26
2022-11-28T21:04:00.505Z,3.17
2022-11-28T21:09:04.884Z,3.28
2022-11-28T21:14:10.441Z,3.02
2022-11-28T21:19:14.534Z,3.13
2022-11-28T21:24:19.382Z,3.02
2022-11-28T21:29:27.372Z,2.95
2022-11-28T21:34:31.303Z,2.82
2022-11-28T21:39:35.363Z,2.85
2022-11-28T21:44:46.453Z,2.81
2022-11-28T21:49:50.468Z,2.70
2022-11-28T21:54:55.100Z,2.64
2022-11-28T22:00:02.214Z,2.49
2022-11-28T22:05:08.956Z,2.38
2022-11-28T22:10:13.046Z,2.43
2022-11-28T22:15:19.304Z,2.58
2022-11-28T22:20:23.326Z,2.55
2022-11-28T22:25:27.406Z,2.52
2022-11-28T22:30:32.769Z,2.77
2022-11-28T22:35:36.782Z,3.07
2022-11-28T22:40:40.854Z,3.12
2022-11-28T22:45:55.759Z,3.04
2022-11-28T22:50:59.981Z,2.96
2022-11-28T22:56:05.728Z,3.19
2022-11-28T23:01:14.083Z,3.24
2022-11-28T23:06:19.895Z,3.30
2022-11-28T23:11:32.868Z,3.38
2022-11-28T23:16:40.422Z,3.39
2022-11-28T23:21:47.327Z,3.36
2022-11-28T23:26:52.500Z,3.43
2022-11-28T23:31:58.244Z,3.52
2022-11-28T23:37:03.947Z,3.65
2022-11-28T23:42:08.527Z,3.49
2022-11-28T23:47:15.330Z,3.61
2022-11-28T23:52:19.284Z,3.63
2022-11-28T23:57:23.343Z,3.52
